Kimberlin Heights, Tennessee
Current Conditions -  °F | °C
As of 10:53 AM on Monday 26 Jan 2015 (Local Time) from KTYS Reporting Station
Overcast Overcast  
Wind Chill: 29°   Ceiling: 2300
Heat Index: 37°   Visibility: 10mi
Dew Point: 30°   Wind: 12mph
Humidity: 76%   Direction: 290°WNW
Pressure: 29.85"   Gusts: NA
Location:  35.9105°N, 83.8544°W
Report Text: KTYS 261553Z 29010KT 10SM OVC023 03/M01 A2985 RMK AO2 SLP108 T00281011
Loading
Personal Weather Stations






























Interactive Weather Map New forecast layout! Learn more

10-Day Weather Forecast

Advertisements
Track Severe Weather on mobile